createdAt,value
2022-08-26T00:00:12.325Z,55.30
2022-08-26T00:02:42.975Z,55.82
2022-08-26T00:05:11.206Z,55.77
2022-08-26T00:07:39.642Z,55.74
2022-08-26T00:10:12.348Z,54.98
2022-08-26T00:12:40.574Z,55.72
2022-08-26T00:15:14.979Z,55.63
2022-08-26T00:17:43.357Z,55.54
2022-08-26T00:20:15.625Z,55.94
2022-08-26T00:22:43.809Z,55.85
2022-08-26T00:25:13.105Z,56.20
2022-08-26T00:27:41.732Z,56.23
2022-08-26T00:30:24.247Z,56.59
2022-08-26T00:32:55.094Z,56.56
2022-08-26T00:35:25.196Z,56.33
2022-08-26T00:37:57.408Z,56.41
2022-08-26T00:40:32.905Z,55.96
2022-08-26T00:43:02.162Z,56.33
2022-08-26T00:45:45.294Z,56.33
2022-08-26T00:48:15.004Z,56.79
2022-08-26T00:50:51.902Z,56.70
2022-08-26T00:53:26.050Z,56.78
2022-08-26T00:56:03.090Z,56.56
2022-08-26T00:58:34.055Z,56.94
2022-08-26T01:01:03.621Z,56.87
2022-08-26T01:03:35.691Z,56.71
2022-08-26T01:06:05.283Z,56.82
2022-08-26T01:08:41.089Z,57.17
2022-08-26T01:11:10.621Z,57.22
2022-08-26T01:13:39.687Z,57.41
2022-08-26T01:16:13.773Z,57.39
2022-08-26T01:18:45.106Z,57.39
2022-08-26T01:21:20.422Z,57.15
2022-08-26T01:23:57.238Z,57.15
2022-08-26T01:26:30.730Z,56.77
2022-08-26T01:29:03.340Z,56.84
2022-08-26T01:31:39.688Z,56.96
2022-08-26T01:34:16.891Z,56.96
2022-08-26T01:36:49.308Z,57.62
2022-08-26T01:39:21.440Z,57.35
2022-08-26T01:41:51.835Z,57.73
2022-08-26T01:44:27.747Z,57.98
2022-08-26T01:46:58.313Z,57.59
2022-08-26T01:49:29.030Z,57.73
2022-08-26T01:52:00.219Z,57.98
2022-08-26T01:54:29.559Z,57.71
2022-08-26T01:56:59.509Z,57.84
2022-08-26T01:59:28.134Z,57.56
2022-08-26T02:01:56.935Z,57.80
2022-08-26T02:04:30.309Z,57.86
2022-08-26T02:06:59.195Z,58.22
2022-08-26T02:09:28.680Z,58.20
2022-08-26T02:12:01.320Z,58.28
2022-08-26T02:14:35.470Z,58.43
2022-08-26T02:17:12.983Z,58.07
2022-08-26T02:19:46.286Z,58.11
2022-08-26T02:22:19.845Z,58.25
2022-08-26T02:24:52.725Z,58.39
2022-08-26T02:27:25.642Z,57.75
2022-08-26T02:30:01.554Z,57.97
2022-08-26T02:32:29.668Z,57.96
2022-08-26T02:34:58.018Z,58.16
2022-08-26T02:37:30.952Z,58.15
2022-08-26T02:40:00.369Z,58.41
2022-08-26T02:42:28.508Z,58.16
2022-08-26T02:44:56.710Z,58.57
2022-08-26T02:47:25.465Z,58.20
2022-08-26T02:49:57.334Z,58.51
2022-08-26T02:52:25.501Z,58.33
2022-08-26T02:54:54.171Z,57.93
2022-08-26T02:57:24.699Z,57.98
2022-08-26T02:59:52.756Z,58.27
2022-08-26T03:02:21.378Z,58.31
2022-08-26T03:04:58.066Z,58.25
2022-08-26T03:07:30.436Z,58.47
2022-08-26T03:09:58.705Z,58.85
2022-08-26T03:12:28.922Z,58.90
2022-08-26T03:14:57.922Z,59.02
2022-08-26T03:17:26.830Z,58.63
2022-08-26T03:19:57.315Z,58.01
2022-08-26T03:22:27.053Z,57.69
2022-08-26T03:24:55.652Z,57.83
2022-08-26T03:27:23.680Z,58.38
2022-08-26T03:30:11.828Z,58.95
2022-08-26T03:32:41.535Z,59.09
2022-08-26T03:35:10.615Z,59.53
2022-08-26T03:37:39.616Z,59.54
2022-08-26T03:40:11.485Z,59.42
2022-08-26T03:42:41.327Z,59.23
2022-08-26T03:45:16.974Z,59.36
2022-08-26T03:47:46.146Z,59.21
2022-08-26T03:50:22.883Z,59.46
2022-08-26T03:52:54.769Z,59.47
2022-08-26T03:55:27.283Z,59.59
2022-08-26T03:57:55.926Z,59.73
2022-08-26T04:00:25.795Z,59.15
2022-08-26T04:02:54.314Z,59.30
2022-08-26T04:05:24.259Z,59.38
2022-08-26T04:07:53.032Z,59.15
2022-08-26T04:10:26.415Z,59.52
2022-08-26T04:12:58.736Z,59.83
2022-08-26T04:15:29.144Z,59.56
2022-08-26T04:17:57.725Z,59.48
2022-08-26T04:20:26.233Z,59.57
2022-08-26T04:22:54.383Z,59.31
2022-08-26T04:25:22.539Z,59.58
2022-08-26T04:27:52.390Z,59.48
2022-08-26T04:30:21.247Z,59.81
2022-08-26T04:32:50.919Z,59.72
2022-08-26T04:35:21.835Z,59.98
2022-08-26T04:37:55.268Z,59.76
2022-08-26T04:40:23.862Z,59.67
2022-08-26T04:42:51.953Z,59.67
2022-08-26T04:45:44.525Z,59.80
2022-08-26T04:48:16.868Z,59.47
2022-08-26T04:50:45.114Z,59.46
2022-08-26T04:53:19.270Z,59.83
2022-08-26T04:55:48.464Z,59.82
2022-08-26T04:58:18.169Z,60.14
2022-08-26T05:00:47.699Z,59.67
2022-08-26T05:03:18.215Z,60.40
2022-08-26T05:05:49.814Z,60.06
2022-08-26T05:08:21.119Z,60.14
2022-08-26T05:10:52.473Z,60.02
2022-08-26T05:13:21.972Z,59.89
2022-08-26T05:15:51.933Z,59.88
2022-08-26T05:18:23.960Z,59.91
2022-08-26T05:20:55.865Z,60.12
2022-08-26T05:23:24.937Z,60.19
2022-08-26T05:25:59.173Z,60.06
2022-08-26T05:28:29.017Z,60.13
2022-08-26T05:30:57.627Z,60.13
2022-08-26T05:33:27.045Z,60.12
2022-08-26T05:35:55.050Z,59.98
2022-08-26T05:38:23.716Z,60.19
2022-08-26T05:40:53.370Z,60.03
2022-08-26T05:43:22.163Z,60.03
2022-08-26T05:45:51.373Z,60.01
2022-08-26T05:48:24.178Z,59.97
2022-08-26T05:50:54.893Z,60.16
2022-08-26T05:53:26.065Z,59.64
2022-08-26T05:55:56.196Z,59.67
2022-08-26T05:58:24.837Z,59.89
2022-08-26T06:01:01.108Z,59.82
2022-08-26T06:03:29.532Z,60.08
2022-08-26T06:05:59.414Z,59.69
2022-08-26T06:08:27.536Z,59.85
2022-08-26T06:11:00.515Z,59.86
2022-08-26T06:13:31.934Z,60.25
2022-08-26T06:16:01.349Z,60.22
2022-08-26T06:18:32.733Z,60.20
2022-08-26T06:21:12.917Z,59.92
2022-08-26T06:23:58.375Z,60.24
2022-08-26T06:26:27.382Z,59.79
2022-08-26T06:28:55.542Z,59.90
2022-08-26T06:31:25.179Z,59.89
2022-08-26T06:33:54.373Z,59.63
2022-08-26T06:36:27.076Z,59.56
2022-08-26T06:38:56.723Z,59.94
2022-08-26T06:41:25.803Z,59.69
2022-08-26T06:43:54.133Z,59.51
2022-08-26T06:46:23.009Z,59.42
2022-08-26T06:48:55.349Z,59.75
2022-08-26T06:51:27.545Z,59.41
2022-08-26T06:53:59.477Z,58.85
2022-08-26T06:56:30.211Z,58.73
2022-08-26T06:58:58.289Z,58.07
2022-08-26T07:01:28.771Z,58.20
2022-08-26T07:04:00.594Z,58.68
2022-08-26T07:06:31.116Z,57.95
2022-08-26T07:09:04.856Z,57.66
2022-08-26T07:11:33.712Z,57.92
2022-08-26T07:14:02.023Z,57.25
2022-08-26T07:16:30.751Z,57.52
2022-08-26T07:18:59.427Z,57.41
2022-08-26T07:21:30.582Z,56.86
2022-08-26T07:24:01.263Z,57.51
2022-08-26T07:26:31.379Z,57.32
2022-08-26T07:29:01.681Z,56.97
2022-08-26T07:31:39.444Z,57.50
2022-08-26T07:34:10.791Z,56.05
2022-08-26T07:36:40.475Z,56.61
2022-08-26T07:39:09.190Z,55.68
2022-08-26T07:41:37.545Z,55.96
2022-08-26T07:44:06.760Z,56.12
2022-08-26T07:46:36.768Z,56.16
2022-08-26T07:49:05.663Z,55.37
2022-08-26T07:51:35.394Z,53.84
2022-08-26T07:54:07.937Z,53.08
2022-08-26T07:56:36.111Z,52.72
2022-08-26T07:59:13.657Z,53.32
2022-08-26T08:01:45.142Z,52.75
2022-08-26T08:04:14.346Z,52.16
2022-08-26T08:06:43.921Z,53.04
2022-08-26T08:09:16.035Z,53.15
2022-08-26T08:11:45.638Z,52.23
2022-08-26T08:14:16.732Z,53.26
2022-08-26T08:16:47.005Z,53.29
2022-08-26T08:19:19.213Z,52.42
2022-08-26T08:21:47.279Z,51.94
2022-08-26T08:24:17.002Z,51.31
2022-08-26T08:26:45.939Z,50.77
2022-08-26T08:29:14.534Z,50.77
2022-08-26T08:31:56.859Z,49.65
2022-08-26T08:34:28.826Z,48.73
2022-08-26T08:36:57.073Z,48.81
2022-08-26T08:39:27.396Z,49.10
2022-08-26T08:42:20.515Z,49.74
2022-08-26T08:44:56.823Z,49.61
2022-08-26T08:47:35.102Z,49.91
2022-08-26T08:50:18.511Z,49.79
2022-08-26T08:52:55.856Z,48.90
2022-08-26T08:55:32.093Z,48.80
2022-08-26T08:58:06.598Z,49.47
2022-08-26T09:00:47.701Z,48.81
2022-08-26T09:03:33.343Z,48.32
2022-08-26T09:06:16.824Z,48.49
2022-08-26T09:08:49.920Z,48.77
2022-08-26T09:11:21.303Z,48.51
2022-08-26T09:13:55.988Z,47.56
2022-08-26T09:16:38.300Z,47.02
2022-08-26T09:19:18.975Z,47.77
2022-08-26T09:21:47.511Z,47.56
2022-08-26T09:24:22.246Z,46.96
2022-08-26T09:26:52.768Z,47.09
2022-08-26T09:29:25.550Z,46.32
2022-08-26T09:32:13.864Z,46.53
2022-08-26T09:34:59.513Z,46.26
2022-08-26T09:37:43.959Z,45.64
2022-08-26T09:40:27.115Z,45.63
2022-08-26T09:43:22.867Z,45.77
2022-08-26T09:45:59.534Z,45.93
2022-08-26T09:48:34.848Z,46.25
2022-08-26T09:51:26.258Z,45.83
2022-08-26T09:53:57.505Z,45.47
2022-08-26T09:56:32.045Z,45.63
2022-08-26T09:59:03.132Z,46.09
2022-08-26T10:01:38.326Z,45.69
2022-08-26T10:04:11.017Z,44.97
2022-08-26T10:06:44.545Z,45.07
2022-08-26T10:09:18.518Z,45.17
2022-08-26T10:11:53.461Z,45.35
2022-08-26T10:14:29.215Z,45.24
2022-08-26T10:17:06.875Z,44.90
2022-08-26T10:19:51.625Z,45.25
2022-08-26T10:22:31.218Z,45.34
2022-08-26T10:25:03.244Z,44.50
2022-08-26T10:27:49.582Z,45.17
2022-08-26T10:30:24.218Z,44.31
2022-08-26T10:32:58.715Z,44.55
2022-08-26T10:35:27.368Z,43.28
2022-08-26T10:37:59.532Z,43.52
2022-08-26T10:40:31.652Z,43.64
2022-08-26T10:43:11.433Z,42.52
2022-08-26T10:45:48.524Z,42.32
2022-08-26T10:48:25.620Z,41.75
2022-08-26T10:51:08.607Z,41.68
2022-08-26T10:53:46.063Z,42.07
2022-08-26T10:56:33.721Z,42.65
2022-08-26T10:59:12.341Z,43.15
2022-08-26T11:01:51.092Z,41.90
2022-08-26T11:04:58.001Z,40.59
2022-08-26T11:07:43.397Z,42.26
2022-08-26T11:10:46.470Z,41.85
2022-08-26T11:13:14.550Z,40.87
2022-08-26T11:16:01.095Z,39.67
2022-08-26T11:18:44.646Z,37.76
2022-08-26T11:22:06.231Z,38.18
2022-08-26T11:25:07.393Z,36.61
2022-08-26T11:27:57.682Z,37.65
2022-08-26T11:30:56.817Z,38.41
2022-08-26T11:33:59.465Z,37.72
2022-08-26T11:37:13.481Z,37.54
2022-08-26T11:39:54.701Z,37.12
2022-08-26T11:42:34.472Z,37.52
2022-08-26T11:45:14.330Z,38.45
2022-08-26T11:47:42.511Z,38.05
2022-08-26T11:50:17.728Z,38.07
2022-08-26T11:52:54.182Z,38.29
2022-08-26T11:55:24.222Z,37.76
2022-08-26T11:57:56.758Z,38.78
2022-08-26T12:00:34.498Z,37.66
2022-08-26T12:03:09.190Z,38.18
2022-08-26T12:05:45.251Z,37.36
2022-08-26T12:08:19.042Z,35.89
2022-08-26T12:10:48.260Z,36.78
2022-08-26T12:13:23.950Z,35.71
2022-08-26T12:15:57.130Z,36.37
2022-08-26T12:18:30.257Z,37.53
2022-08-26T12:21:12.223Z,36.38
2022-08-26T12:23:46.808Z,36.44
2022-08-26T12:26:24.141Z,37.23
2022-08-26T12:28:57.976Z,36.77
2022-08-26T12:31:31.177Z,36.18
2022-08-26T12:34:01.199Z,36.31
2022-08-26T12:36:36.012Z,36.05
2022-08-26T12:39:10.934Z,36.95
2022-08-26T12:41:50.192Z,36.45
2022-08-26T12:44:53.200Z,35.09
2022-08-26T12:47:36.922Z,35.25
2022-08-26T12:50:18.964Z,36.96
2022-08-26T12:53:00.009Z,37.01
2022-08-26T12:55:39.710Z,36.91
2022-08-26T12:58:21.200Z,36.74
2022-08-26T13:00:50.726Z,37.76
2022-08-26T13:03:43.787Z,38.22
2022-08-26T13:06:36.477Z,38.03
2022-08-26T13:09:31.289Z,38.74
2022-08-26T13:12:02.262Z,39.24
2022-08-26T13:14:31.057Z,39.71
2022-08-26T13:16:59.121Z,40.13
2022-08-26T13:19:27.447Z,39.54
2022-08-26T13:21:58.359Z,40.47
2022-08-26T13:24:31.869Z,40.54
2022-08-26T13:27:02.044Z,39.99
2022-08-26T13:29:30.277Z,40.13
2022-08-26T13:31:59.799Z,40.68
2022-08-26T13:34:29.303Z,41.13
2022-08-26T13:36:58.375Z,40.72
2022-08-26T13:39:27.373Z,40.83
2022-08-26T13:41:55.753Z,41.24
2022-08-26T13:44:25.352Z,41.84
2022-08-26T13:46:53.654Z,42.42
2022-08-26T13:49:22.180Z,42.68
2022-08-26T13:51:50.316Z,43.68
2022-08-26T13:54:18.409Z,42.81
2022-08-26T13:56:46.465Z,43.01
2022-08-26T13:59:14.504Z,43.23
2022-08-26T14:01:44.022Z,44.19
2022-08-26T14:04:12.124Z,43.97
2022-08-26T14:06:40.228Z,43.29
2022-08-26T14:09:08.258Z,43.27
2022-08-26T14:11:50.715Z,42.53
2022-08-26T14:14:22.895Z,42.71
2022-08-26T14:16:59.681Z,42.53
2022-08-26T14:19:30.556Z,42.56
2022-08-26T14:22:00.724Z,42.30
2022-08-26T14:24:29.896Z,41.77
2022-08-26T14:26:58.465Z,41.49
2022-08-26T14:29:26.675Z,41.74
2022-08-26T14:31:57.858Z,42.14
2022-08-26T14:34:29.609Z,41.66
2022-08-26T14:36:57.717Z,42.31
2022-08-26T14:39:37.004Z,42.33
2022-08-26T14:42:05.561Z,43.01
2022-08-26T14:44:34.375Z,43.17
2022-08-26T14:47:06.682Z,43.04
2022-08-26T14:49:34.850Z,42.25
2022-08-26T14:52:03.049Z,41.36
2022-08-26T14:54:30.208Z,40.95
2022-08-26T14:57:03.536Z,42.61
2022-08-26T14:59:34.944Z,41.93
2022-08-26T15:02:06.115Z,42.60
2022-08-26T15:04:35.063Z,42.34
2022-08-26T15:07:04.564Z,42.01
2022-08-26T15:09:37.257Z,41.80
2022-08-26T15:12:06.653Z,41.51
2022-08-26T15:14:34.694Z,41.17
2022-08-26T15:17:04.656Z,41.62
2022-08-26T15:19:32.702Z,42.29
2022-08-26T15:22:00.726Z,40.55
2022-08-26T15:24:29.651Z,40.69
2022-08-26T15:26:57.810Z,40.25
2022-08-26T15:29:25.913Z,42.86
2022-08-26T15:31:57.309Z,44.71
2022-08-26T15:34:27.633Z,46.03
2022-08-26T15:36:55.708Z,47.28
2022-08-26T15:39:23.963Z,48.97
2022-08-26T15:41:52.070Z,49.69
2022-08-26T15:44:20.647Z,48.67
2022-08-26T15:46:50.849Z,46.54
2022-08-26T15:49:20.590Z,46.37
2022-08-26T15:51:51.122Z,46.81
2022-08-26T15:54:23.488Z,46.77
2022-08-26T15:56:53.005Z,47.83
2022-08-26T15:59:22.954Z,48.61
2022-08-26T16:01:51.981Z,49.44
2022-08-26T16:04:20.271Z,50.63
2022-08-26T16:06:51.956Z,52.63
2022-08-26T16:09:21.318Z,53.52
2022-08-26T16:11:50.514Z,53.59
2022-08-26T16:14:18.561Z,53.83
2022-08-26T16:16:47.102Z,54.15
2022-08-26T16:19:15.773Z,55.34
2022-08-26T16:21:44.800Z,56.04
2022-08-26T16:24:14.588Z,57.06
2022-08-26T16:26:44.273Z,58.27
2022-08-26T16:29:15.934Z,58.79
2022-08-26T16:31:44.438Z,59.06
2022-08-26T16:34:12.749Z,60.42
2022-08-26T16:36:41.554Z,60.64
2022-08-26T16:39:10.312Z,61.50
2022-08-26T16:41:39.837Z,61.54
2022-08-26T16:44:08.995Z,63.52
2022-08-26T16:46:38.816Z,63.28
2022-08-26T16:49:06.960Z,63.22
2022-08-26T16:51:37.783Z,63.41
2022-08-26T16:54:08.093Z,63.24
2022-08-26T16:56:37.267Z,63.77
2022-08-26T16:59:10.447Z,63.79
2022-08-26T17:01:38.800Z,63.29
2022-08-26T17:04:06.894Z,63.83
2022-08-26T17:06:35.001Z,64.96
2022-08-26T17:09:03.507Z,64.27
2022-08-26T17:11:31.733Z,64.10
2022-08-26T17:13:59.828Z,63.59
2022-08-26T17:16:29.429Z,62.79
2022-08-26T17:18:58.893Z,62.04
2022-08-26T17:21:28.107Z,60.46
2022-08-26T17:23:56.264Z,59.71
2022-08-26T17:26:24.387Z,60.74
2022-08-26T17:28:53.149Z,60.80
2022-08-26T17:31:23.242Z,61.42
2022-08-26T17:33:54.327Z,61.49
2022-08-26T17:36:27.906Z,61.34
2022-08-26T17:38:57.780Z,61.51
2022-08-26T17:41:26.674Z,60.61
2022-08-26T17:43:55.272Z,60.35
2022-08-26T17:46:23.547Z,60.99
2022-08-26T17:48:53.054Z,61.99
2022-08-26T17:51:22.646Z,63.40
2022-08-26T17:53:52.046Z,63.32
2022-08-26T17:56:25.419Z,64.25
2022-08-26T17:58:55.135Z,64.66
2022-08-26T18:01:28.118Z,66.16
2022-08-26T18:04:00.535Z,65.91
2022-08-26T18:06:31.017Z,65.76
2022-08-26T18:08:59.921Z,65.99
2022-08-26T18:11:29.316Z,66.15
2022-08-26T18:13:57.875Z,66.14
2022-08-26T18:16:26.155Z,66.01
2022-08-26T18:18:55.276Z,67.12
2022-08-26T18:21:28.288Z,67.68
2022-08-26T18:23:56.525Z,67.32
2022-08-26T18:26:28.213Z,67.29
2022-08-26T18:28:56.544Z,67.51
2022-08-26T18:31:24.826Z,67.83
2022-08-26T18:33:53.846Z,67.59
2022-08-26T18:36:29.011Z,67.42
2022-08-26T18:38:59.291Z,67.34
2022-08-26T18:41:30.744Z,67.96
2022-08-26T18:43:59.745Z,67.76
2022-08-26T18:46:29.410Z,67.58
2022-08-26T18:48:58.761Z,67.80
2022-08-26T18:51:31.569Z,67.36
2022-08-26T18:54:02.359Z,67.26
2022-08-26T18:56:31.126Z,67.58
2022-08-26T18:59:00.474Z,67.81
2022-08-26T19:01:30.691Z,67.80
2022-08-26T19:04:03.620Z,68.18
2022-08-26T19:06:35.533Z,68.12
2022-08-26T19:09:05.656Z,68.36
2022-08-26T19:11:37.315Z,67.89
2022-08-26T19:14:08.246Z,68.03
2022-08-26T19:16:37.544Z,68.52
2022-08-26T19:19:07.160Z,68.78
2022-08-26T19:21:38.095Z,68.23
2022-08-26T19:24:15.094Z,67.89
2022-08-26T19:26:43.875Z,68.10
2022-08-26T19:29:13.092Z,67.63
2022-08-26T19:31:42.195Z,67.68
2022-08-26T19:34:12.996Z,68.18
2022-08-26T19:36:43.041Z,67.85
2022-08-26T19:39:13.466Z,67.92
2022-08-26T19:41:42.201Z,67.64
2022-08-26T19:44:33.889Z,68.70
2022-08-26T19:47:03.468Z,67.95
2022-08-26T19:49:31.771Z,68.20
2022-08-26T19:52:02.827Z,68.81
2022-08-26T19:54:31.297Z,68.14
2022-08-26T19:56:59.419Z,68.75
2022-08-26T19:59:27.982Z,67.91
2022-08-26T20:02:01.178Z,67.64
2022-08-26T20:04:31.266Z,67.76
2022-08-26T20:07:02.243Z,68.13
2022-08-26T20:09:31.593Z,67.84
2022-08-26T20:11:59.897Z,67.88
2022-08-26T20:14:28.555Z,68.17
2022-08-26T20:16:56.688Z,67.89
2022-08-26T20:19:43.519Z,68.30
2022-08-26T20:22:14.213Z,68.38
2022-08-26T20:24:42.574Z,67.97
2022-08-26T20:27:11.075Z,68.56
2022-08-26T20:29:40.370Z,68.84
2022-08-26T20:32:09.103Z,68.70
2022-08-26T20:34:38.094Z,68.85
2022-08-26T20:37:08.294Z,69.05
2022-08-26T20:39:37.821Z,68.78
2022-08-26T20:42:20.320Z,68.15
2022-08-26T20:44:54.676Z,68.56
2022-08-26T20:47:23.262Z,68.29
2022-08-26T20:49:52.511Z,67.82
2022-08-26T20:52:21.514Z,68.06
2022-08-26T20:54:50.907Z,67.92
2022-08-26T20:57:19.052Z,68.05
2022-08-26T20:59:47.073Z,67.83
2022-08-26T21:02:15.110Z,67.91
2022-08-26T21:04:43.255Z,68.07
2022-08-26T21:07:11.342Z,68.46
2022-08-26T21:09:42.303Z,68.78
2022-08-26T21:12:11.781Z,68.47
2022-08-26T21:14:39.873Z,68.27
2022-08-26T21:17:09.267Z,68.64
2022-08-26T21:19:37.789Z,68.85
2022-08-26T21:22:06.400Z,69.26
2022-08-26T21:24:34.563Z,68.69
2022-08-26T21:27:02.588Z,69.47
2022-08-26T21:29:32.016Z,69.44
2022-08-26T21:32:00.072Z,69.57
2022-08-26T21:34:28.374Z,69.33
2022-08-26T21:36:56.446Z,69.23
2022-08-26T21:39:24.792Z,69.13
2022-08-26T21:41:52.833Z,69.63
2022-08-26T21:44:21.484Z,69.17
2022-08-26T21:46:50.919Z,68.75
2022-08-26T21:49:19.403Z,68.67
2022-08-26T21:51:49.306Z,68.79
2022-08-26T21:54:18.049Z,68.81
2022-08-26T21:56:47.879Z,68.34
2022-08-26T21:59:19.188Z,68.49
2022-08-26T22:01:47.576Z,68.44
2022-08-26T22:04:18.066Z,68.06
2022-08-26T22:06:49.676Z,68.14
2022-08-26T22:09:21.860Z,68.50
2022-08-26T22:11:50.378Z,68.71
2022-08-26T22:14:21.957Z,68.40
2022-08-26T22:16:50.892Z,68.93
2022-08-26T22:19:21.028Z,68.68
2022-08-26T22:21:54.349Z,69.05
2022-08-26T22:24:25.082Z,69.22
2022-08-26T22:26:54.107Z,69.16
2022-08-26T22:29:22.448Z,69.02
2022-08-26T22:31:50.514Z,69.45
2022-08-26T22:34:21.083Z,69.27
2022-08-26T22:36:50.937Z,69.05
2022-08-26T22:39:23.905Z,68.90
2022-08-26T22:41:53.303Z,68.70
2022-08-26T22:44:22.449Z,69.01
2022-08-26T22:46:54.686Z,68.81
2022-08-26T22:49:25.244Z,68.83
2022-08-26T22:51:53.325Z,68.66
2022-08-26T22:54:21.777Z,69.33
2022-08-26T22:56:49.930Z,69.19
2022-08-26T22:59:18.022Z,68.99
2022-08-26T23:01:47.287Z,69.46
2022-08-26T23:04:16.075Z,69.30
2022-08-26T23:06:47.767Z,69.35
2022-08-26T23:09:17.967Z,69.47
2022-08-26T23:11:46.840Z,69.39
2022-08-26T23:14:15.081Z,69.18
2022-08-26T23:16:43.811Z,69.25
2022-08-26T23:19:14.085Z,69.34
2022-08-26T23:21:42.415Z,69.71
2022-08-26T23:24:12.678Z,70.13
2022-08-26T23:26:42.919Z,70.13
2022-08-26T23:29:13.561Z,70.26
2022-08-26T23:31:43.623Z,70.61
2022-08-26T23:34:29.988Z,70.81
2022-08-26T23:36:58.936Z,71.31
2022-08-26T23:39:28.641Z,71.39
2022-08-26T23:41:57.320Z,71.62
2022-08-26T23:44:26.594Z,71.74
2022-08-26T23:46:54.863Z,71.71
2022-08-26T23:49:23.235Z,71.64
2022-08-26T23:52:09.065Z,71.83
2022-08-26T23:54:39.017Z,71.47
2022-08-26T23:57:07.674Z,71.53
2022-08-26T23:59:37.415Z,71.76
